LIMLLIRP

Guest
Details From LIML - Milano Linate
To LIRP - PISA
Flight Number -
Tags generated
Created
Modified
Stats Distance 116 nm / 216 km
Max Altitude 5,400 ft / 1,646 m
Waypoints 3
Social Downloads 0
Likes 0
Share VATSIM

Download

Looking for another format? Having issues loading an existing format? Contact us
Advertisement - Login to hide

Notes

Basic altitude profile: - Ascent Rate: 2500ft/min - Ascent Speed: 250kts - Cruise Altitude: 21000ft - Cruise Speed: 420kts - Descent Rate: 1500ft/min - Descent Speed: 250kts Options: - Use NATs: no - Use PACOTS: no - Use low airways: no - Use high airways: yes

Route

LIML GIPIX LIRP

ID Type Via Altitude Latitude Longitude Leg Dist Tot Dist Heading (true) Name
O LIML APT - 0 ft / 0 m 45.45030˚ 9.27280˚ - 0 nm - Milano Linate
GIPIX FIX - 5,400 ft / 1,646 m 44.06194˚ 10.12833˚ 91 nm 91 nm 156° / 157° -
O LIRP APT - 0 ft / 0 m 43.68388˚ 10.39272˚ 25 nm 116 nm 153° / 153° PISA

Altitude Profile

Advertisement - Login to hide

LIML

Details ICAO LIML (LIN)
Name Milano Linate
Region Italy
Timezone Europe/Rome (UTC+2.0)
Stats Elevation 353 ft / 108 m (AMSL)
Location 45.450302° 9.272801°
Runways 2
Magnetic Variation 2.560° E

METAR

LIML 220450Z 26005KT 220V290 9999 FEW090 23/18 Q1010 NOSIG

Decode

TAF

TAF LIML 212300Z 2200/2224 VRB05KT 9999 SCT060 PROB40 TEMPO 2202/2205 4000 TSRA BECMG 2208/2210 34012KT BECMG 2214/2216 10012KT

Decode

Departure Runways

ID Width Length Bearing (true) Bearing (mag) Surface Threshold Offset Overrun Length
17 72 ft / 22 m 1,975 ft / 602 m 175.64° 173.08° Asphalt 200 ft / 61 m 0 ft / 0 m
18 197 ft / 60 m 8,017 ft / 2,443 m 175.67° 173.11° Asphalt 0 ft / 0 m 190 ft / 58 m
35 72 ft / 22 m 1,975 ft / 602 m 355.64° 353.08° Asphalt 200 ft / 61 m 0 ft / 0 m
36 197 ft / 60 m 8,017 ft / 2,443 m 355.68° 353.12° Asphalt 0 ft / 0 m 980 ft / 299 m

LIRP

Details ICAO LIRP (PSA)
Name PISA
Region Italy
Timezone Europe/Rome (UTC+2.0)
Stats Elevation 6 ft / 2 m (AMSL)
Location 43.683883° 10.392724°
Runways 2
Magnetic Variation 2.761° E

METAR

LIRP 220445Z 10003KT 8000 FEW015 SCT070 19/19 Q1013 TEMPO 5000 BR

Decode

TAF

TAF LIRP 212300Z 2200/2224 16005KT CAVOK PROB40 TEMPO 2200/2206 5000 BR NSC TEMPO 2206/2212 SCT030 SCT070 TEMPO 2219/2224 05015G30KT

Decode

Destination Runways

ID Width Length Bearing (true) Bearing (mag) Surface Threshold Offset Overrun Length
04L 141 ft / 43 m 9,158 ft / 2,791 m 36.70° 33.94° Asphalt 979 ft / 298 m 0 ft / 0 m
04R 148 ft / 45 m 9,819 ft / 2,993 m 36.72° 33.96° Asphalt 490 ft / 149 m 0 ft / 0 m
22L 148 ft / 45 m 9,819 ft / 2,993 m 216.73° 213.97° Asphalt 843 ft / 257 m 0 ft / 0 m
22R 141 ft / 43 m 9,158 ft / 2,791 m 216.72° 213.96° Asphalt 0 ft / 0 m 0 ft / 0 m

Approach Navaids

Runway Type Ident Frequency Range Bearing (true) Bearing (mag) Slope Elevation
04R Localiser IPI 109.70 MHz 18 nm / 33 km 36.76° 34.00° - 7 ft / 2 m (AMSL)
04R Glidescope IPI 109.70 MHz 10 nm / 19 km 36.72° 33.96° 3.00° 3 ft / 1 m (AMSL)

Popular Alternatives